sensor_id;sensor_type;location;lat;lon;timestamp;P1;P2;P0
64861;PMS5003;62652;42.274;-71.436;2023-09-30T00:00:00;38.97;31.57;18.67
64861;PMS5003;62652;42.274;-71.436;2023-09-30T00:01:00;32.80;30.03;16.93
64861;PMS5003;62652;42.274;-71.436;2023-09-30T00:02:01;33.97;29.97;16.10
64861;PMS5003;62652;42.274;-71.436;2023-09-30T00:03:00;35.93;31.60;16.07
64861;PMS5003;62652;42.274;-71.436;2023-09-30T00:04:00;35.13;30.47;16.07
64861;PMS5003;62652;42.274;-71.436;2023-09-30T00:05:00;39.10;31.07;17.67
64861;PMS5003;62652;42.274;-71.436;2023-09-30T00:06:00;35.47;30.03;16.07
64861;PMS5003;62652;42.274;-71.436;2023-09-30T00:07:00;35.50;31.47;17.60
64861;PMS5003;62652;42.274;-71.436;2023-09-30T00:08:00;35.83;31.77;17.20
64861;PMS5003;62652;42.274;-71.436;2023-09-30T00:09:00;35.27;30.53;18.03
64861;PMS5003;62652;42.274;-71.436;2023-09-30T00:10:00;35.83;30.10;17.97
64861;PMS5003;62652;42.274;-71.436;2023-09-30T00:11:00;38.80;33.33;17.83
64861;PMS5003;62652;42.274;-71.436;2023-09-30T00:12:00;40.00;33.43;18.10
64861;PMS5003;62652;42.274;-71.436;2023-09-30T00:13:01;40.00;32.40;17.13
64861;PMS5003;62652;42.274;-71.436;2023-09-30T00:14:00;36.57;30.97;17.97
64861;PMS5003;62652;42.274;-71.436;2023-09-30T00:15:00;39.40;34.10;19.27
64861;PMS5003;62652;42.274;-71.436;2023-09-30T00:16:00;43.13;34.20;18.87
64861;PMS5003;62652;42.274;-71.436;2023-09-30T00:17:00;37.27;31.97;16.90
64861;PMS5003;62652;42.274;-71.436;2023-09-30T00:18:00;39.87;33.10;18.03
64861;PMS5003;62652;42.274;-71.436;2023-09-30T00:19:00;41.53;33.00;18.40
64861;PMS5003;62652;42.274;-71.436;2023-09-30T00:20:00;40.97;33.03;18.57
64861;PMS5003;62652;42.274;-71.436;2023-09-30T00:21:00;40.93;34.97;19.90
64861;PMS5003;62652;42.274;-71.436;2023-09-30T00:22:00;37.37;31.97;19.63
64861;PMS5003;62652;42.274;-71.436;2023-09-30T00:23:00;37.10;32.43;17.93
64861;PMS5003;62652;42.274;-71.436;2023-09-30T00:24:01;34.37;30.97;17.03
64861;PMS5003;62652;42.274;-71.436;2023-09-30T00:25:00;37.77;31.57;17.50
64861;PMS5003;62652;42.274;-71.436;2023-09-30T00:26:00;35.23;31.07;17.13
64861;PMS5003;62652;42.274;-71.436;2023-09-30T00:27:00;40.93;33.30;18.00
64861;PMS5003;62652;42.274;-71.436;2023-09-30T00:28:00;33.67;29.80;14.67
64861;PMS5003;62652;42.274;-71.436;2023-09-30T00:29:00;38.33;31.00;17.13
64861;PMS5003;62652;42.274;-71.436;2023-09-30T00:30:00;37.23;31.93;16.80
64861;PMS5003;62652;42.274;-71.436;2023-09-30T00:31:00;38.17;31.87;16.87
64861;PMS5003;62652;42.274;-71.436;2023-09-30T00:32:00;30.17;27.47;16.30
64861;PMS5003;62652;42.274;-71.436;2023-09-30T00:33:00;35.53;30.90;17.03
64861;PMS5003;62652;42.274;-71.436;2023-09-30T00:34:00;34.53;30.13;15.97
64861;PMS5003;62652;42.274;-71.436;2023-09-30T00:35:01;37.70;32.80;16.73
64861;PMS5003;62652;42.274;-71.436;2023-09-30T00:36:05;37.00;32.37;17.40
64861;PMS5003;62652;42.274;-71.436;2023-09-30T00:37:00;38.57;32.07;16.80
64861;PMS5003;62652;42.274;-71.436;2023-09-30T00:38:00;34.13;29.97;16.53
64861;PMS5003;62652;42.274;-71.436;2023-09-30T00:39:00;36.57;31.97;16.20
64861;PMS5003;62652;42.274;-71.436;2023-09-30T00:40:00;36.30;31.73;17.70
64861;PMS5003;62652;42.274;-71.436;2023-09-30T00:41:00;32.67;27.97;14.67
64861;PMS5003;62652;42.274;-71.436;2023-09-30T00:42:00;37.27;31.20;16.70
64861;PMS5003;62652;42.274;-71.436;2023-09-30T00:43:00;39.27;32.40;17.83
64861;PMS5003;62652;42.274;-71.436;2023-09-30T00:44:00;36.73;31.27;16.43
64861;PMS5003;62652;42.274;-71.436;2023-09-30T00:45:00;33.00;29.73;17.17
64861;PMS5003;62652;42.274;-71.436;2023-09-30T00:46:01;35.63;31.33;17.93
64861;PMS5003;62652;42.274;-71.436;2023-09-30T00:47:00;33.73;30.47;17.60
64861;PMS5003;62652;42.274;-71.436;2023-09-30T00:48:01;36.73;32.30;17.13
64861;PMS5003;62652;42.274;-71.436;2023-09-30T00:49:00;31.97;28.87;16.73
64861;PMS5003;62652;42.274;-71.436;2023-09-30T00:50:00;40.33;32.37;18.20
64861;PMS5003;62652;42.274;-71.436;2023-09-30T00:51:00;41.10;34.17;18.27
64861;PMS5003;62652;42.274;-71.436;2023-09-30T00:52:00;39.10;32.00;16.50
64861;PMS5003;62652;42.274;-71.436;2023-09-30T00:53:00;39.13;33.07;19.13
64861;PMS5003;62652;42.274;-71.436;2023-09-30T00:54:00;39.13;32.73;16.97
64861;PMS5003;62652;42.274;-71.436;2023-09-30T00:55:00;37.63;31.63;16.67
64861;PMS5003;62652;42.274;-71.436;2023-09-30T00:56:00;37.73;31.77;16.70
64861;PMS5003;62652;42.274;-71.436;2023-09-30T00:57:01;36.03;31.53;16.50
64861;PMS5003;62652;42.274;-71.436;2023-09-30T00:58:00;32.07;29.17;18.03
64861;PMS5003;62652;42.274;-71.436;2023-09-30T00:59:00;34.70;28.97;14.63
64861;PMS5003;62652;42.274;-71.436;2023-09-30T01:00:00;37.43;31.17;16.37
64861;PMS5003;62652;42.274;-71.436;2023-09-30T01:01:00;37.97;32.67;18.27
64861;PMS5003;62652;42.274;-71.436;2023-09-30T01:02:00;37.23;31.97;17.23
64861;PMS5003;62652;42.274;-71.436;2023-09-30T01:03:00;38.37;33.23;16.73
64861;PMS5003;62652;42.274;-71.436;2023-09-30T01:04:00;38.50;30.00;15.60
64861;PMS5003;62652;42.274;-71.436;2023-09-30T01:05:01;36.97;32.50;17.40
64861;PMS5003;62652;42.274;-71.436;2023-09-30T01:06:00;39.00;31.57;16.07
64861;PMS5003;62652;42.274;-71.436;2023-09-30T01:07:00;34.57;30.47;15.80
64861;PMS5003;62652;42.274;-71.436;2023-09-30T01:08:01;34.33;30.80;17.20
64861;PMS5003;62652;42.274;-71.436;2023-09-30T01:09:00;34.67;30.73;17.47
64861;PMS5003;62652;42.274;-71.436;2023-09-30T01:10:00;36.37;30.50;17.33
64861;PMS5003;62652;42.274;-71.436;2023-09-30T01:11:00;34.87;29.73;14.90
64861;PMS5003;62652;42.274;-71.436;2023-09-30T01:12:00;37.53;32.20;17.17
64861;PMS5003;62652;42.274;-71.436;2023-09-30T01:13:00;31.33;29.60;16.27
64861;PMS5003;62652;42.274;-71.436;2023-09-30T01:14:00;35.87;31.63;15.87
64861;PMS5003;62652;42.274;-71.436;2023-09-30T01:15:00;40.87;32.70;17.60
64861;PMS5003;62652;42.274;-71.436;2023-09-30T01:16:02;35.00;30.77;16.60
64861;PMS5003;62652;42.274;-71.436;2023-09-30T01:17:01;34.13;29.97;16.23
64861;PMS5003;62652;42.274;-71.436;2023-09-30T01:18:00;35.63;30.50;17.87
64861;PMS5003;62652;42.274;-71.436;2023-09-30T01:19:00;34.33;30.40;16.60
64861;PMS5003;62652;42.274;-71.436;2023-09-30T01:20:00;37.60;31.30;17.73
64861;PMS5003;62652;42.274;-71.436;2023-09-30T01:21:01;35.50;31.10;17.90
64861;PMS5003;62652;42.274;-71.436;2023-09-30T01:22:00;38.87;32.83;16.97
64861;PMS5003;62652;42.274;-71.436;2023-09-30T01:23:00;39.40;32.13;17.23
64861;PMS5003;62652;42.274;-71.436;2023-09-30T01:24:00;37.57;31.67;17.93
64861;PMS5003;62652;42.274;-71.436;2023-09-30T01:25:00;38.43;32.77;17.00
64861;PMS5003;62652;42.274;-71.436;2023-09-30T01:26:01;36.13;31.53;18.17
64861;PMS5003;62652;42.274;-71.436;2023-09-30T01:27:00;37.37;32.43;17.23
64861;PMS5003;62652;42.274;-71.436;2023-09-30T01:28:00;36.90;30.97;17.37
64861;PMS5003;62652;42.274;-71.436;2023-09-30T01:29:00;35.00;31.83;17.97
64861;PMS5003;62652;42.274;-71.436;2023-09-30T01:30:00;38.07;32.57;17.27
64861;PMS5003;62652;42.274;-71.436;2023-09-30T01:31:00;37.73;31.73;16.10
64861;PMS5003;62652;42.274;-71.436;2023-09-30T01:32:00;39.37;32.03;16.37
64861;PMS5003;62652;42.274;-71.436;2023-09-30T01:33:00;37.53;30.23;16.93
64861;PMS5003;62652;42.274;-71.436;2023-09-30T01:34:00;37.27;32.30;17.43
64861;PMS5003;62652;42.274;-71.436;2023-09-30T01:35:00;35.93;31.37;17.27
64861;PMS5003;62652;42.274;-71.436;2023-09-30T01:36:00;37.83;32.17;17.23
64861;PMS5003;62652;42.274;-71.436;2023-09-30T01:37:00;39.03;33.00;17.60
64861;PMS5003;62652;42.274;-71.436;2023-09-30T01:38:00;41.87;33.07;17.70
64861;PMS5003;62652;42.274;-71.436;2023-09-30T01:39:00;38.80;32.50;17.07
64861;PMS5003;62652;42.274;-71.436;2023-09-30T01:40:00;36.63;31.63;18.20
64861;PMS5003;62652;42.274;-71.436;2023-09-30T01:41:00;41.87;33.87;17.70
64861;PMS5003;62652;42.274;-71.436;2023-09-30T01:42:00;38.17;32.40;18.03
64861;PMS5003;62652;42.274;-71.436;2023-09-30T01:43:00;35.00;30.80;17.13
64861;PMS5003;62652;42.274;-71.436;2023-09-30T01:44:00;38.70;32.33;18.00
64861;PMS5003;62652;42.274;-71.436;2023-09-30T01:45:00;38.10;31.33;16.87
64861;PMS5003;62652;42.274;-71.436;2023-09-30T01:46:00;36.47;31.03;17.10
64861;PMS5003;62652;42.274;-71.436;2023-09-30T01:47:00;37.20;31.17;16.67
64861;PMS5003;62652;42.274;-71.436;2023-09-30T01:48:01;34.37;30.83;16.60
64861;PMS5003;62652;42.274;-71.436;2023-09-30T01:49:00;40.93;32.70;19.67
64861;PMS5003;62652;42.274;-71.436;2023-09-30T01:50:00;39.60;33.47;18.30
64861;PMS5003;62652;42.274;-71.436;2023-09-30T01:51:00;39.27;31.83;17.80
64861;PMS5003;62652;42.274;-71.436;2023-09-30T01:52:01;38.37;33.07;18.43
64861;PMS5003;62652;42.274;-71.436;2023-09-30T01:53:00;39.07;32.87;18.67
64861;PMS5003;62652;42.274;-71.436;2023-09-30T01:54:00;41.43;33.27;17.53
64861;PMS5003;62652;42.274;-71.436;2023-09-30T01:55:00;35.63;30.77;16.50
64861;PMS5003;62652;42.274;-71.436;2023-09-30T01:56:00;42.80;33.83;19.33
64861;PMS5003;62652;42.274;-71.436;2023-09-30T01:57:00;37.67;33.23;17.57
64861;PMS5003;62652;42.274;-71.436;2023-09-30T01:58:00;34.77;29.60;17.03
64861;PMS5003;62652;42.274;-71.436;2023-09-30T01:59:00;37.30;31.13;16.73
64861;PMS5003;62652;42.274;-71.436;2023-09-30T02:00:00;36.53;31.00;16.80
64861;PMS5003;62652;42.274;-71.436;2023-09-30T02:01:01;37.70;31.47;16.47
64861;PMS5003;62652;42.274;-71.436;2023-09-30T02:02:00;39.50;32.57;18.40
64861;PMS5003;62652;42.274;-71.436;2023-09-30T02:03:01;39.40;32.87;17.80
64861;PMS5003;62652;42.274;-71.436;2023-09-30T02:04:00;38.47;33.00;16.93
64861;PMS5003;62652;42.274;-71.436;2023-09-30T02:05:00;43.90;34.97;18.77
64861;PMS5003;62652;42.274;-71.436;2023-09-30T02:06:00;36.37;32.37;18.53
64861;PMS5003;62652;42.274;-71.436;2023-09-30T02:07:00;37.20;32.17;17.37
64861;PMS5003;62652;42.274;-71.436;2023-09-30T02:08:00;36.10;31.00;17.37
64861;PMS5003;62652;42.274;-71.436;2023-09-30T02:09:00;36.20;29.53;16.80
64861;PMS5003;62652;42.274;-71.436;2023-09-30T02:10:00;35.87;31.33;18.27
64861;PMS5003;62652;42.274;-71.436;2023-09-30T02:11:00;42.67;33.47;18.53
64861;PMS5003;62652;42.274;-71.436;2023-09-30T02:12:00;40.60;33.40;17.47
64861;PMS5003;62652;42.274;-71.436;2023-09-30T02:13:00;35.97;32.17;17.73
64861;PMS5003;62652;42.274;-71.436;2023-09-30T02:14:02;38.63;32.23;19.03
64861;PMS5003;62652;42.274;-71.436;2023-09-30T02:15:00;39.53;32.57;17.40
64861;PMS5003;62652;42.274;-71.436;2023-09-30T02:16:00;36.47;32.50;18.93
64861;PMS5003;62652;42.274;-71.436;2023-09-30T02:17:00;36.40;31.70;16.20
64861;PMS5003;62652;42.274;-71.436;2023-09-30T02:18:00;40.80;33.13;19.77
64861;PMS5003;62652;42.274;-71.436;2023-09-30T02:19:00;36.90;31.50;17.93
64861;PMS5003;62652;42.274;-71.436;2023-09-30T02:20:00;37.40;32.77;16.57
64861;PMS5003;62652;42.274;-71.436;2023-09-30T02:21:00;37.33;31.03;16.30
64861;PMS5003;62652;42.274;-71.436;2023-09-30T02:22:00;38.00;31.50;17.23
64861;PMS5003;62652;42.274;-71.436;2023-09-30T02:23:00;35.70;30.97;17.33
64861;PMS5003;62652;42.274;-71.436;2023-09-30T02:24:00;38.83;32.90;18.70
64861;PMS5003;62652;42.274;-71.436;2023-09-30T02:25:01;37.90;32.13;17.60
64861;PMS5003;62652;42.274;-71.436;2023-09-30T02:26:00;34.93;31.57;17.47
64861;PMS5003;62652;42.274;-71.436;2023-09-30T02:27:00;36.57;31.30;16.27
64861;PMS5003;62652;42.274;-71.436;2023-09-30T02:28:00;36.03;31.90;16.60
64861;PMS5003;62652;42.274;-71.436;2023-09-30T02:29:00;36.53;31.83;16.73
64861;PMS5003;62652;42.274;-71.436;2023-09-30T02:30:00;33.97;30.07;17.57
64861;PMS5003;62652;42.274;-71.436;2023-09-30T02:31:00;36.20;30.60;16.33
64861;PMS5003;62652;42.274;-71.436;2023-09-30T02:32:00;34.47;29.97;14.37
64861;PMS5003;62652;42.274;-71.436;2023-09-30T02:33:00;33.03;30.33;16.40
64861;PMS5003;62652;42.274;-71.436;2023-09-30T02:34:00;35.20;31.23;17.00
64861;PMS5003;62652;42.274;-71.436;2023-09-30T02:35:00;34.07;30.13;17.00
64861;PMS5003;62652;42.274;-71.436;2023-09-30T02:36:01;32.20;29.57;17.23
64861;PMS5003;62652;42.274;-71.436;2023-09-30T02:37:00;34.53;30.77;17.00
64861;PMS5003;62652;42.274;-71.436;2023-09-30T02:38:00;38.40;32.83;18.17
64861;PMS5003;62652;42.274;-71.436;2023-09-30T02:39:00;34.30;31.57;17.83
64861;PMS5003;62652;42.274;-71.436;2023-09-30T02:40:01;37.63;31.37;17.13
64861;PMS5003;62652;42.274;-71.436;2023-09-30T02:41:00;34.13;30.00;16.47
64861;PMS5003;62652;42.274;-71.436;2023-09-30T02:42:00;38.27;32.03;18.40
64861;PMS5003;62652;42.274;-71.436;2023-09-30T02:43:00;38.00;31.90;17.40
64861;PMS5003;62652;42.274;-71.436;2023-09-30T02:44:00;34.70;29.77;15.83
64861;PMS5003;62652;42.274;-71.436;2023-09-30T02:45:00;34.57;30.30;15.47
64861;PMS5003;62652;42.274;-71.436;2023-09-30T02:46:00;34.70;31.30;16.27
64861;PMS5003;62652;42.274;-71.436;2023-09-30T02:47:00;33.50;29.40;17.33
64861;PMS5003;62652;42.274;-71.436;2023-09-30T02:48:00;35.70;30.23;15.97
64861;PMS5003;62652;42.274;-71.436;2023-09-30T02:49:00;29.57;25.03;14.13
64861;PMS5003;62652;42.274;-71.436;2023-09-30T02:50:00;34.97;31.80;17.33
64861;PMS5003;62652;42.274;-71.436;2023-09-30T02:51:00;35.13;31.37;17.13
64861;PMS5003;62652;42.274;-71.436;2023-09-30T02:52:00;35.77;31.27;16.67
64861;PMS5003;62652;42.274;-71.436;2023-09-30T02:53:00;35.43;30.83;16.73
64861;PMS5003;62652;42.274;-71.436;2023-09-30T02:54:02;34.93;30.37;16.67
64861;PMS5003;62652;42.274;-71.436;2023-09-30T02:55:00;37.77;32.07;16.60
64861;PMS5003;62652;42.274;-71.436;2023-09-30T02:56:00;39.03;33.43;16.67
64861;PMS5003;62652;42.274;-71.436;2023-09-30T02:57:00;34.43;30.40;16.77
64861;PMS5003;62652;42.274;-71.436;2023-09-30T02:58:01;33.03;28.37;17.17
64861;PMS5003;62652;42.274;-71.436;2023-09-30T02:59:00;36.80;32.23;16.97
64861;PMS5003;62652;42.274;-71.436;2023-09-30T03:00:01;36.40;31.17;17.07
64861;PMS5003;62652;42.274;-71.436;2023-09-30T03:01:00;34.60;30.67;15.83
64861;PMS5003;62652;42.274;-71.436;2023-09-30T03:02:00;32.73;28.87;16.90
64861;PMS5003;62652;42.274;-71.436;2023-09-30T03:03:01;35.13;29.80;17.73
64861;PMS5003;62652;42.274;-71.436;2023-09-30T03:04:00;30.77;28.37;15.87
64861;PMS5003;62652;42.274;-71.436;2023-09-30T03:05:00;34.70;30.57;17.10
64861;PMS5003;62652;42.274;-71.436;2023-09-30T03:06:00;35.23;31.20;17.20
64861;PMS5003;62652;42.274;-71.436;2023-09-30T03:07:00;35.17;31.33;16.43
64861;PMS5003;62652;42.274;-71.436;2023-09-30T03:08:00;37.37;31.47;16.17
64861;PMS5003;62652;42.274;-71.436;2023-09-30T03:09:01;30.00;27.73;14.23
64861;PMS5003;62652;42.274;-71.436;2023-09-30T03:10:00;32.50;29.70;16.30
64861;PMS5003;62652;42.274;-71.436;2023-09-30T03:11:00;32.83;29.10;15.97
64861;PMS5003;62652;42.274;-71.436;2023-09-30T03:12:00;33.40;30.03;17.13
64861;PMS5003;62652;42.274;-71.436;2023-09-30T03:13:00;29.03;27.97;16.03
64861;PMS5003;62652;42.274;-71.436;2023-09-30T03:14:00;33.47;29.50;14.23
64861;PMS5003;62652;42.274;-71.436;2023-09-30T03:15:00;32.10;29.23;16.13
64861;PMS5003;62652;42.274;-71.436;2023-09-30T03:16:00;36.67;30.63;16.47
64861;PMS5003;62652;42.274;-71.436;2023-09-30T03:17:00;33.53;29.53;15.93
64861;PMS5003;62652;42.274;-71.436;2023-09-30T03:18:00;34.20;30.70;17.10
64861;PMS5003;62652;42.274;-71.436;2023-09-30T03:19:00;36.30;31.50;16.30
64861;PMS5003;62652;42.274;-71.436;2023-09-30T03:20:01;34.50;30.07;16.20
64861;PMS5003;62652;42.274;-71.436;2023-09-30T03:21:01;32.67;28.70;15.30
64861;PMS5003;62652;42.274;-71.436;2023-09-30T03:22:00;34.97;29.37;16.03
64861;PMS5003;62652;42.274;-71.436;2023-09-30T03:23:00;32.13;29.03;15.17
64861;PMS5003;62652;42.274;-71.436;2023-09-30T03:24:00;37.70;31.73;16.70
64861;PMS5003;62652;42.274;-71.436;2023-09-30T03:25:00;29.40;26.90;15.80
64861;PMS5003;62652;42.274;-71.436;2023-09-30T03:26:00;31.17;28.40;15.53
64861;PMS5003;62652;42.274;-71.436;2023-09-30T03:27:00;33.07;29.80;15.30
64861;PMS5003;62652;42.274;-71.436;2023-09-30T03:28:00;30.80;28.33;13.67
64861;PMS5003;62652;42.274;-71.436;2023-09-30T03:29:00;33.17;29.43;16.33
64861;PMS5003;62652;42.274;-71.436;2023-09-30T03:30:01;34.23;29.73;17.20
64861;PMS5003;62652;42.274;-71.436;2023-09-30T03:31:01;31.67;29.47;16.60
64861;PMS5003;62652;42.274;-71.436;2023-09-30T03:32:00;37.50;30.83;16.93
64861;PMS5003;62652;42.274;-71.436;2023-09-30T03:33:00;33.10;29.77;16.67
64861;PMS5003;62652;42.274;-71.436;2023-09-30T03:34:00;35.00;30.30;16.87
64861;PMS5003;62652;42.274;-71.436;2023-09-30T03:35:00;33.63;30.00;16.87
64861;PMS5003;62652;42.274;-71.436;2023-09-30T03:36:00;39.33;32.47;16.13
64861;PMS5003;62652;42.274;-71.436;2023-09-30T03:37:00;30.13;27.60;15.67
64861;PMS5003;62652;42.274;-71.436;2023-09-30T03:38:00;29.30;28.33;15.50
64861;PMS5003;62652;42.274;-71.436;2023-09-30T03:39:00;30.97;27.10;16.53
64861;PMS5003;62652;42.274;-71.436;2023-09-30T03:40:00;33.40;28.50;15.73
64861;PMS5003;62652;42.274;-71.436;2023-09-30T03:41:00;30.33;27.50;15.10
64861;PMS5003;62652;42.274;-71.436;2023-09-30T03:42:00;30.50;28.50;15.00
64861;PMS5003;62652;42.274;-71.436;2023-09-30T03:43:00;33.37;30.50;15.97
64861;PMS5003;62652;42.274;-71.436;2023-09-30T03:44:00;30.43;27.27;16.07
64861;PMS5003;62652;42.274;-71.436;2023-09-30T03:45:00;34.57;29.67;16.60
64861;PMS5003;62652;42.274;-71.436;2023-09-30T03:46:00;36.00;31.43;16.77
64861;PMS5003;62652;42.274;-71.436;2023-09-30T03:47:00;31.03;29.10;15.53
64861;PMS5003;62652;42.274;-71.436;2023-09-30T03:48:01;32.70;30.37;16.17
64861;PMS5003;62652;42.274;-71.436;2023-09-30T03:49:00;33.13;30.03;16.27
64861;PMS5003;62652;42.274;-71.436;2023-09-30T03:50:00;34.53;31.60;16.83
64861;PMS5003;62652;42.274;-71.436;2023-09-30T03:51:07;29.13;27.70;17.13
64861;PMS5003;62652;42.274;-71.436;2023-09-30T03:52:00;32.73;30.00;15.90
64861;PMS5003;62652;42.274;-71.436;2023-09-30T03:53:01;33.90;30.20;15.03
64861;PMS5003;62652;42.274;-71.436;2023-09-30T03:54:00;32.80;29.63;17.17
64861;PMS5003;62652;42.274;-71.436;2023-09-30T03:55:00;33.40;29.50;15.97
64861;PMS5003;62652;42.274;-71.436;2023-09-30T03:56:00;30.43;27.73;14.17
64861;PMS5003;62652;42.274;-71.436;2023-09-30T03:57:00;33.90;30.00;16.23
64861;PMS5003;62652;42.274;-71.436;2023-09-30T03:58:00;32.53;29.53;14.67
64861;PMS5003;62652;42.274;-71.436;2023-09-30T03:59:00;32.23;29.40;15.37
64861;PMS5003;62652;42.274;-71.436;2023-09-30T04:00:00;35.30;28.83;16.03
64861;PMS5003;62652;42.274;-71.436;2023-09-30T04:01:00;28.00;25.80;15.30
64861;PMS5003;62652;42.274;-71.436;2023-09-30T04:02:00;26.47;24.93;14.90
64861;PMS5003;62652;42.274;-71.436;2023-09-30T04:03:00;31.50;29.23;16.20
64861;PMS5003;62652;42.274;-71.436;2023-09-30T04:04:00;31.80;28.73;15.67
64861;PMS5003;62652;42.274;-71.436;2023-09-30T04:05:00;30.23;27.70;15.57
64861;PMS5003;62652;42.274;-71.436;2023-09-30T04:06:01;28.90;26.33;13.80
64861;PMS5003;62652;42.274;-71.436;2023-09-30T04:07:00;30.73;28.40;15.60
64861;PMS5003;62652;42.274;-71.436;2023-09-30T04:08:00;32.53;29.50;16.50
64861;PMS5003;62652;42.274;-71.436;2023-09-30T04:09:00;32.43;28.67;15.43
64861;PMS5003;62652;42.274;-71.436;2023-09-30T04:10:00;33.77;30.17;14.50
64861;PMS5003;62652;42.274;-71.436;2023-09-30T04:11:00;30.40;27.33;14.47
64861;PMS5003;62652;42.274;-71.436;2023-09-30T04:12:00;28.67;24.43;14.70
64861;PMS5003;62652;42.274;-71.436;2023-09-30T04:13:00;30.87;27.57;15.07
64861;PMS5003;62652;42.274;-71.436;2023-09-30T04:14:00;31.67;29.17;15.10
64861;PMS5003;62652;42.274;-71.436;2023-09-30T04:15:01;30.10;27.27;15.07
64861;PMS5003;62652;42.274;-71.436;2023-09-30T04:16:00;29.53;28.00;14.50
64861;PMS5003;62652;42.274;-71.436;2023-09-30T04:17:00;28.83;26.13;16.13
64861;PMS5003;62652;42.274;-71.436;2023-09-30T04:18:00;26.77;24.17;15.17
64861;PMS5003;62652;42.274;-71.436;2023-09-30T04:19:00;29.30;27.10;15.20
64861;PMS5003;62652;42.274;-71.436;2023-09-30T04:20:00;31.83;27.87;15.37
64861;PMS5003;62652;42.274;-71.436;2023-09-30T04:21:00;28.93;26.93;16.53
64861;PMS5003;62652;42.274;-71.436;2023-09-30T04:22:00;32.93;28.87;14.80
64861;PMS5003;62652;42.274;-71.436;2023-09-30T04:23:00;31.97;27.33;14.70
64861;PMS5003;62652;42.274;-71.436;2023-09-30T04:24:00;32.00;27.90;15.03
64861;PMS5003;62652;42.274;-71.436;2023-09-30T04:25:00;28.67;26.83;14.83
64861;PMS5003;62652;42.274;-71.436;2023-09-30T04:26:01;32.03;28.70;14.33
64861;PMS5003;62652;42.274;-71.436;2023-09-30T04:27:00;31.23;27.00;14.17
64861;PMS5003;62652;42.274;-71.436;2023-09-30T04:28:00;26.07;24.10;14.57
64861;PMS5003;62652;42.274;-71.436;2023-09-30T04:29:00;29.60;26.87;15.00
64861;PMS5003;62652;42.274;-71.436;2023-09-30T04:30:00;29.37;26.90;14.83
64861;PMS5003;62652;42.274;-71.436;2023-09-30T04:31:00;26.33;25.83;14.80
64861;PMS5003;62652;42.274;-71.436;2023-09-30T04:32:00;27.87;27.00;15.37
64861;PMS5003;62652;42.274;-71.436;2023-09-30T04:33:00;29.33;26.13;14.53
64861;PMS5003;62652;42.274;-71.436;2023-09-30T04:34:00;28.13;27.27;15.50
64861;PMS5003;62652;42.274;-71.436;2023-09-30T04:35:00;28.40;26.87;14.57
64861;PMS5003;62652;42.274;-71.436;2023-09-30T04:36:00;23.77;22.40;13.73
64861;PMS5003;62652;42.274;-71.436;2023-09-30T04:37:00;26.90;24.97;15.10
64861;PMS5003;62652;42.274;-71.436;2023-09-30T04:38:00;29.47;26.57;14.73
64861;PMS5003;62652;42.274;-71.436;2023-09-30T04:39:00;28.07;25.43;14.00
64861;PMS5003;62652;42.274;-71.436;2023-09-30T04:40:00;33.83;28.13;14.60
64861;PMS5003;62652;42.274;-71.436;2023-09-30T04:41:00;33.80;29.93;16.77
64861;PMS5003;62652;42.274;-71.436;2023-09-30T04:42:00;28.10;24.23;14.13
64861;PMS5003;62652;42.274;-71.436;2023-09-30T04:43:00;29.43;26.13;14.97
64861;PMS5003;62652;42.274;-71.436;2023-09-30T04:44:00;26.90;24.37;14.53
64861;PMS5003;62652;42.274;-71.436;2023-09-30T04:45:00;30.23;26.43;15.77
64861;PMS5003;62652;42.274;-71.436;2023-09-30T04:46:00;28.90;27.07;14.03
64861;PMS5003;62652;42.274;-71.436;2023-09-30T04:47:00;27.33;26.43;14.60
64861;PMS5003;62652;42.274;-71.436;2023-09-30T04:48:01;33.83;28.70;15.40
64861;PMS5003;62652;42.274;-71.436;2023-09-30T04:49:00;30.53;26.23;15.50
64861;PMS5003;62652;42.274;-71.436;2023-09-30T04:50:00;29.53;26.87;15.17
64861;PMS5003;62652;42.274;-71.436;2023-09-30T04:51:01;31.43;26.07;14.37
64861;PMS5003;62652;42.274;-71.436;2023-09-30T04:52:00;29.87;26.43;14.97
64861;PMS5003;62652;42.274;-71.436;2023-09-30T04:53:00;29.63;27.60;14.83
64861;PMS5003;62652;42.274;-71.436;2023-09-30T04:54:00;29.63;28.37;15.40
64861;PMS5003;62652;42.274;-71.436;2023-09-30T04:55:00;26.93;23.97;15.30
64861;PMS5003;62652;42.274;-71.436;2023-09-30T04:56:00;29.33;27.63;14.33
64861;PMS5003;62652;42.274;-71.436;2023-09-30T04:57:00;29.97;26.03;14.03
64861;PMS5003;62652;42.274;-71.436;2023-09-30T04:58:00;28.70;27.17;14.23
64861;PMS5003;62652;42.274;-71.436;2023-09-30T04:59:01;27.10;25.50;14.33
64861;PMS5003;62652;42.274;-71.436;2023-09-30T05:00:00;29.10;26.10;14.50
64861;PMS5003;62652;42.274;-71.436;2023-09-30T05:01:00;25.40;22.53;13.37
64861;PMS5003;62652;42.274;-71.436;2023-09-30T05:02:00;25.83;24.03;12.50
64861;PMS5003;62652;42.274;-71.436;2023-09-30T05:03:00;29.07;23.60;13.33
64861;PMS5003;62652;42.274;-71.436;2023-09-30T05:04:00;33.10;28.77;14.57
64861;PMS5003;62652;42.274;-71.436;2023-09-30T05:05:00;27.37;25.17;14.70
64861;PMS5003;62652;42.274;-71.436;2023-09-30T05:06:00;27.37;26.23;13.80
64861;PMS5003;62652;42.274;-71.436;2023-09-30T05:07:00;29.93;24.77;14.30
64861;PMS5003;62652;42.274;-71.436;2023-09-30T05:08:00;26.77;24.57;14.40
64861;PMS5003;62652;42.274;-71.436;2023-09-30T05:09:00;26.67;25.13;13.77
64861;PMS5003;62652;42.274;-71.436;2023-09-30T05:10:00;28.47;25.80;14.33
64861;PMS5003;62652;42.274;-71.436;2023-09-30T05:11:00;30.67;27.80;15.70
64861;PMS5003;62652;42.274;-71.436;2023-09-30T05:12:00;29.70;25.60;13.77
64861;PMS5003;62652;42.274;-71.436;2023-09-30T05:13:00;30.57;27.83;15.77
64861;PMS5003;62652;42.274;-71.436;2023-09-30T05:14:00;30.23;27.70;15.30
64861;PMS5003;62652;42.274;-71.436;2023-09-30T05:15:01;28.57;26.13;14.40
64861;PMS5003;62652;42.274;-71.436;2023-09-30T05:16:00;26.10;23.57;14.07
64861;PMS5003;62652;42.274;-71.436;2023-09-30T05:17:00;27.57;24.90;13.80
64861;PMS5003;62652;42.274;-71.436;2023-09-30T05:18:00;28.93;26.97;15.23
64861;PMS5003;62652;42.274;-71.436;2023-09-30T05:19:00;31.70;28.50;14.93
64861;PMS5003;62652;42.274;-71.436;2023-09-30T05:20:00;28.77;27.80;14.47
64861;PMS5003;62652;42.274;-71.436;2023-09-30T05:21:01;30.23;27.00;13.63
64861;PMS5003;62652;42.274;-71.436;2023-09-30T05:22:00;31.20;29.00;14.60
64861;PMS5003;62652;42.274;-71.436;2023-09-30T05:23:00;33.10;29.53;16.83
64861;PMS5003;62652;42.274;-71.436;2023-09-30T05:24:00;28.63;25.73;16.13
64861;PMS5003;62652;42.274;-71.436;2023-09-30T05:25:00;33.10;27.93;15.70
64861;PMS5003;62652;42.274;-71.436;2023-09-30T05:26:00;29.40;26.17;14.77